»·PEaware :: QXE2321 KMHV-KSMX

QXE2321 :: KMHV-KSMX

FLIGHT INFORMATION

Flight Status: Arrived
Operator:
Horizon Air
More flights by this operator :: More flights under this callsign
Pilot: Alfonso U. (14209)
Aircraft: DEHAVILLAND DASH 8 400
(DH8D)
More flights by this aircraft type
Origin: KMHV Mojave
United States
Destination: KSMX Santa Maria Pub/Capt Hancock
United States
More flights between these airports :: More routes between these airports
Route: +LHS RZS
File this flight plan on PilotEdge
Remarks:
Altitude:
(Current/Filed)
18,000ft
Speed:
(Current/Filed)
400kts
Departed: 16-Sep-17 12:32 PM
Arrived: 16-Sep-17 01:25 PM
Distance/Time
Traveled:
113nm/0:53
Distance/Time
To Go:
Arrived

Flight Plot

Page will automatically refresh every two minutes.


Map Options




Map Legend


Flown Route
Filed Route
Departure Airport
Arrival Airport
Navaid (VOR, NDB)
Fix

Horizontal Profiles

Position Reports

Time Latitude Longitude Heading Altitude Ground
Speed
16-Sep-17 11:56 35.048217 -118.140719 87 2798ft 0kts
16-Sep-17 11:57 35.048217 -118.140719 87 2798ft 0kts
16-Sep-17 11:58 35.048217 -118.140719 87 2798ft 0kts
16-Sep-17 11:59 35.048217 -118.140719 87 2798ft 0kts
16-Sep-17 12:00 35.048217 -118.140719 87 2798ft 0kts
16-Sep-17 12:01 35.048217 -118.140719 87 2798ft 0kts
16-Sep-17 12:02 35.048217 -118.140719 87 2798ft 0kts
16-Sep-17 12:04 35.048217 -118.140719 87 2798ft 0kts
16-Sep-17 12:08 35.048215 -118.140714 87 2798ft 0kts
16-Sep-17 12:09 35.048215 -118.140714 87 2798ft 0kts
16-Sep-17 12:10 35.048215 -118.140714 87 2798ft 0kts
16-Sep-17 12:11 35.048215 -118.140714 87 2798ft 0kts
16-Sep-17 12:12 35.048215 -118.140714 87 2798ft 0kts
16-Sep-17 12:13 35.048215 -118.140714 87 2798ft 0kts
16-Sep-17 12:14 35.048215 -118.140714 87 2798ft 0kts
16-Sep-17 12:15 35.048215 -118.140714 87 2798ft 0kts
16-Sep-17 12:16 35.048215 -118.140714 87 2798ft 0kts
16-Sep-17 12:17 35.048215 -118.140714 87 2798ft 0kts
16-Sep-17 12:18 35.048215 -118.140714 87 2798ft 0kts
16-Sep-17 12:19 35.048215 -118.140714 87 2798ft 0kts
16-Sep-17 12:20 35.048215 -118.140714 87 2798ft 0kts
16-Sep-17 12:21 35.048215 -118.140714 87 2798ft 0kts
16-Sep-17 12:22 35.048215 -118.140714 87 2798ft 0kts
16-Sep-17 12:23 35.048215 -118.140714 87 2798ft 0kts
16-Sep-17 12:24 35.048215 -118.140714 87 2798ft 0kts
16-Sep-17 12:25 35.048215 -118.140714 87 2798ft 0kts
16-Sep-17 12:26 35.048215 -118.140714 87 2798ft 0kts
16-Sep-17 12:27 35.048215 -118.140714 87 2798ft 0kts
16-Sep-17 12:28 35.048215 -118.140714 87 2798ft 0kts
16-Sep-17 12:29 35.048215 -118.140714 87 2798ft 0kts
16-Sep-17 12:30 35.048215 -118.140714 87 2798ft 0kts
16-Sep-17 12:31 35.048215 -118.140714 87 2798ft 0kts
16-Sep-17 12:32 35.048215 -118.140714 87 2798ft 0kts
16-Sep-17 12:33 35.048215 -118.140714 87 2798ft 0kts
16-Sep-17 12:34 35.048236 -118.139124 88 2798ft 20kts
16-Sep-17 12:35 35.050971 -118.140795 315 2798ft 26kts
16-Sep-17 12:36 35.057989 -118.149305 317 2798ft 41kts
16-Sep-17 12:37 35.066749 -118.159905 316 2798ft 45kts
16-Sep-17 12:38 35.068424 -118.161109 38 2798ft 0kts
16-Sep-17 12:39 35.068424 -118.161109 38 2798ft 0kts
16-Sep-17 12:40 35.068424 -118.161109 38 2798ft 0kts
16-Sep-17 12:41 35.068424 -118.161109 38 2798ft 0kts
16-Sep-17 12:42 35.068424 -118.161109 38 2798ft 0kts
16-Sep-17 12:43 35.068424 -118.161109 38 2798ft 0kts
16-Sep-17 12:44 35.068440 -118.161094 38 2798ft 1kts
16-Sep-17 12:45 35.061963 -118.151715 134 2798ft 137kts
16-Sep-17 12:46 35.032286 -118.115572 133 5764ft 147kts
16-Sep-17 12:47 35.000188 -118.074393 133 8460ft 185kts
16-Sep-17 12:48 34.964555 -118.025178 133 10444ft 251kts
16-Sep-17 12:49 34.894079 -118.029242 236 11144ft 334kts
16-Sep-17 12:50 34.857059 -118.126452 242 13185ft 336kts
16-Sep-17 12:51 34.817836 -118.228563 242 13072ft 321kts
16-Sep-17 12:52 34.778916 -118.325918 240 13082ft 320kts
16-Sep-17 12:53 34.741122 -118.421502 243 13296ft 314kts
16-Sep-17 12:54 34.704350 -118.520238 243 14927ft 323kts
16-Sep-17 12:55 34.676794 -118.623615 264 16865ft 331kts
16-Sep-17 12:56 34.666516 -118.732581 258 18120ft 344kts
16-Sep-17 12:57 34.649534 -118.852494 257 18101ft 373kts
16-Sep-17 12:58 34.630806 -118.978964 257 18043ft 385kts
16-Sep-17 12:59 34.612043 -119.103994 260 16542ft 361kts
16-Sep-17 13:00 34.598170 -119.219141 264 14448ft 334kts
16-Sep-17 13:01 34.584319 -119.326981 259 12373ft 314kts
16-Sep-17 13:02 34.567880 -119.428238 258 10301ft 298kts
16-Sep-17 13:03 34.551768 -119.523499 257 8783ft 265kts
16-Sep-17 13:04 34.539648 -119.594821 256 8977ft 179kts
16-Sep-17 13:05 34.531137 -119.644418 257 8961ft 146kts
16-Sep-17 13:06 34.522846 -119.692470 256 8985ft 149kts
16-Sep-17 13:07 34.541033 -119.737312 307 9006ft 160kts
16-Sep-17 13:08 34.569850 -119.781432 308 9051ft 180kts
16-Sep-17 13:09 34.606076 -119.836650 308 9025ft 234kts
16-Sep-17 13:10 34.649609 -119.902503 308 8102ft 266kts
16-Sep-17 13:11 34.694970 -119.971297 308 7974ft 256kts
16-Sep-17 13:12 34.737196 -120.039733 308 7970ft 250kts
16-Sep-17 13:13 34.778637 -120.106932 308 7975ft 247kts
16-Sep-17 13:14 34.819585 -120.173362 308 7983ft 245kts
16-Sep-17 13:15 34.860371 -120.239547 308 7995ft 244kts
16-Sep-17 13:16 34.900986 -120.305529 308 8000ft 243kts
16-Sep-17 13:17 34.940969 -120.366522 308 7987ft 221kts
16-Sep-17 13:18 34.979254 -120.421386 308 7990ft 205kts
16-Sep-17 13:19 35.015488 -120.472343 308 7992ft 194kts
16-Sep-17 13:20 35.050319 -120.520462 308 8009ft 185kts
16-Sep-17 13:21 35.083969 -120.566694 308 7135ft 179kts
16-Sep-17 13:22 35.099886 -120.614842 223 5728ft 172kts
16-Sep-17 13:23 35.053268 -120.612641 172 4312ft 172kts
16-Sep-17 13:24 35.010418 -120.589691 148 3312ft 150kts
16-Sep-17 13:25 34.985382 -120.556837 137 3332ft 117kts
16-Sep-17 13:26 34.963294 -120.530066 135 3281ft 108kts
16-Sep-17 13:27 34.937530 -120.499224 136 1405ft 140kts
16-Sep-17 13:28 34.912400 -120.469042 138 451ft 123kts
16-Sep-17 13:29 34.896810 -120.450519 114 268ft 16kts
16-Sep-17 13:30 34.897821 -120.450001 0 268ft 0kts
16-Sep-17 13:31 34.897821 -120.450001 0 268ft 0kts
16-Sep-17 13:32 34.897598 -120.449065 135 268ft 12kts
16-Sep-17 13:33 34.898875 -120.448989 12 268ft 9kts
16-Sep-17 13:34 34.898680 -120.448196 135 268ft 0kts
16-Sep-17 13:35 34.898680 -120.448196 135 268ft 0kts
16-Sep-17 13:36 34.898680 -120.448197 135 268ft 0kts
16-Sep-17 13:37 34.898680 -120.448197 135 268ft 0kts
16-Sep-17 13:38 34.898680 -120.448197 135 268ft 0kts

Navigation Log

Ident Type
1. KMHV Airport
2. LHS Navaid
3. RZS Navaid
4. KSMX Airport